• Join FlightAware (Why Join?)
  • Login
  • US Flag 
04:37AM EDT


 

Airport Tracker/Info


-or-


 

Live Flight TrackerFlight Track Log ✈ SQC7971 ✈ 18-Jul-2013 ✈ KORD - EBBR / BRU

Flight Track Log - Related Links

Times and Time Zones

All times are in EDT time to prevent confusion due to time zone crossing. See the SQC7971 flight status page for this flight to view local times or setup timezone preferences in your user account.

Time Position Orientation Groundspeed Altitude Reporting Facility
EDT Latitude Longitude Course Direction KTS MPH feet Rate Location/Type
06:18AM 41.9820 -87.9240 320° Northwest 150 173  Level FlightAware
06:18AM 41.9920 -87.9340 323° Northwest 166 191 900 2,580 Climbing FlightAware
06:19AM 42.0050 -87.9470 323° Northwest 168 193 1,600 1,860 Climbing FlightAware
06:19AM 42.0210 -87.9630 323° Northwest 167 192 2,400 960 Climbing FlightAware
06:22AM 42.3271 -87.7854 14° North  Level FlightAware Approximate
06:23AM 42.4656 -87.7392 14° North  Level FlightAware Approximate
06:23AM 42.2390 -88.0700 14° North 278 320 6,000  Level FlightAware
06:24AM 42.3430 -88.0700 360° North 306 352 9,900 2,460 Climbing FlightAware
06:25AM 42.4520 -88.0700 360° North 370 426 11,300 1,560 Climbing FlightAware
06:26AM 42.5270 -88.0700 360° North 398 458 12,500 1,980 Climbing FlightAware
06:27AM 42.5810 -88.0670 North 411 473 13,700 2,400 Climbing FlightAware
06:27AM 42.6300 -88.0300 29° Northeast 426 490 14,800 2,460 Climbing FlightAware
06:28AM 42.6780 -87.9420 53° Northeast 437 503 16,500 2,400 Climbing FlightAware
06:28AM 42.7270 -87.8380 57° Northeast 448 516 18,200 2,220 Climbing FlightAware
06:29AM 42.7670 -87.7570 56° Northeast 456 525 19,500 2,220 Climbing FlightAware
06:30AM 42.8150 -87.6610 56° Northeast 459 528 21,000 2,220 Climbing FlightAware
06:30AM 42.8720 -87.5630 52° Northeast 461 531 22,600 2,040 Climbing FlightAware
06:31AM 42.9180 -87.4910 49° Northeast 468 539 23,600 1,740 Climbing FlightAware
06:32AM 42.9810 -87.3910 49° Northeast 478 550 24,900 1,620 Climbing FlightAware
06:32AM 43.0420 -87.2950 49° Northeast 487 560 26,000 1,560 Climbing FlightAware
06:33AM 43.1010 -87.2020 49° Northeast 493 567 27,100 1,500 Climbing FlightAware
06:34AM 43.1660 -87.0980 49° Northeast 499 574 28,200 1,560 Climbing FlightAware
06:34AM 43.2340 -86.9900 49° Northeast 501 577 29,400 1,800 Climbing FlightAware
06:35AM 43.2950 -86.8910 50° Northeast 493 567 30,800 1,920 Climbing FlightAware
06:36AM 43.3450 -86.8100 50° Northeast 488 562 31,900 900 Climbing FlightAware
06:36AM 43.4050 -86.7130 50° Northeast 489 563 32,000 60 Climbing FlightAware
06:37AM 43.4600 -86.6240 50° Northeast 489 563 32,000  Level FlightAware
06:38AM 43.5400 -86.4940 50° Northeast 488 562 32,000  Level FlightAware
06:39AM 43.5960 -86.3900 53° Northeast 491 565 32,000  Level FlightAware
06:39AM 43.6410 -86.2740 62° Northeast 493 567 32,000  Level FlightAware
06:40AM 43.6840 -86.1570 63° Northeast 492 566 32,000  Level FlightAware
06:41AM 43.7240 -86.0470 63° Northeast 491 565 32,000  Level FlightAware
06:41AM 43.7680 -85.9220 64° Northeast 491 565 32,000  Level FlightAware
06:42AM 43.8080 -85.8090 64° Northeast 493 567 32,000  Level FlightAware
06:43AM 43.8460 -85.7030 64° Northeast 493 567 32,000  Level FlightAware
06:43AM 43.8860 -85.5880 64° Northeast 493 567 32,000  Level FlightAware
06:44AM 43.9290 -85.4700 63° Northeast 494 568 32,000  Level FlightAware
06:45AM 43.9680 -85.3610 64° Northeast 495 570 32,000  Level FlightAware
06:45AM 44.0070 -85.2500 64° Northeast 496 571 32,000  Level FlightAware
06:46AM 44.0520 -85.1210 64° Northeast 497 572 32,000  Level FlightAware
06:47AM 44.0910 -85.0120 63° Northeast 498 573 32,000  Level FlightAware
06:48AM 44.1350 -84.8840 64° Northeast 500 575 32,000  Level FlightAware
06:48AM 44.1770 -84.7640 64° Northeast 501 577 32,000  Level FlightAware
06:49AM 44.2210 -84.6370 64° Northeast 503 579 32,000  Level FlightAware
06:50AM 44.2610 -84.5200 64° Northeast 504 580 32,000  Level FlightAware
06:50AM 44.2980 -84.4140 64° Northeast 505 581 32,000  Level FlightAware
06:51AM 44.3380 -84.2970 64° Northeast 505 581 32,000  Level FlightAware
06:52AM 44.3820 -84.1670 65° Northeast 505 581 32,000  Level FlightAware
06:52AM 44.4180 -84.0620 64° Northeast 506 582 32,000  Level FlightAware
06:53AM 44.4580 -83.9440 65° Northeast 508 585 32,000  Level FlightAware
06:54AM 44.4980 -83.8240 65° Northeast 509 586 32,000  Level FlightAware
06:54AM 44.5400 -83.6970 65° Northeast 510 587 32,000 660 Level FlightAware
06:55AM 44.5860 -83.5610 65° Northeast 512 589 33,000 660 Climbing FlightAware
06:56AM 44.6250 -83.4410 65° Northeast 509 586 33,000  Level FlightAware
06:56AM 44.6680 -83.3110 65° Northeast 505 581 33,000  Level FlightAware
06:57AM 44.7000 -83.2150 65° Northeast 503 579 33,000  Level FlightAware
06:58AM 44.7450 -83.0770 65° Northeast 503 579 33,000  Level FlightAware
06:58AM 44.7830 -82.9600 65° Northeast 504 580 33,000  Level FlightAware
06:59AM 44.8050 -82.8500 74° East 510 587 33,000  Level FlightAware
07:00AM 44.8240 -82.7280 78° East 510 587 33,000  Level FlightAware
07:00AM 44.8490 -82.5710 77° East 513 590 33,000  Level FlightAware
07:01AM 44.8680 -82.4550 77° East 515 593 33,000  Level FlightAware
07:02AM 44.8950 -82.2960 76° East 517 595 33,000  Level FlightAware
07:02AM 44.9190 -82.1660 75° East 519 597 33,000  Level FlightAware
07:03AM 44.9510 -82.0230 72° East 521 600 33,000  Level FlightAware
07:04AM 44.9820 -81.9080 69° East 521 600 33,000  Level FlightAware
07:05AM 45.0210 -81.7570 70° East 521 600 33,000  Level FlightAware
07:05AM 45.0550 -81.6310 69° East 521 600 33,000  Level FlightAware
07:06AM 45.0960 -81.4910 67° East 520 598 33,000  Level FlightAware
07:07AM 45.1340 -81.3650 67° East 520 598 33,000  Level FlightAware
07:07AM 45.1730 -81.2440 65° Northeast 519 597 33,000  Level FlightAware
07:08AM 45.2170 -81.1070 65° Northeast 520 598 33,000  Level FlightAware
07:09AM 45.2600 -80.9710 66° East 521 600 33,000  Level FlightAware
07:09AM 45.2990 -80.8470 66° East 521 600 33,000  Level FlightAware
07:10AM 45.3420 -80.7060 67° East 522 601 33,000  Level FlightAware
07:11AM 45.3830 -80.5740 66° East 524 603 33,000  Level FlightAware
07:11AM 45.4090 -80.4890 66° East 524 603 33,000  Level FlightAware
07:12AM 45.4610 -80.3220 66° East 526 605 33,000  Level FlightAware
07:13AM 45.5050 -80.1770 67° East 527 606 33,000  Level FlightAware
07:14AM 45.5420 -80.0560 66° East 528 608 33,000  Level FlightAware
07:14AM 45.5850 -79.9130 67° East 528 608 33,000  Level FlightAware
07:15AM 45.6190 -79.7990 67° East 529 609 33,000  Level FlightAware
07:16AM 45.6580 -79.6690 67° East 530 610 33,000  Level FlightAware
07:16AM 45.7010 -79.5260 67° East 530 610 33,000  Level FlightAware
07:17AM 45.7380 -79.4010 67° East 530 610 33,000  Level FlightAware
07:18AM 45.7790 -79.2600 67° East 529 609 33,000  Level FlightAware
07:18AM 45.8170 -79.1300 67° East 528 608 33,000  Level FlightAware
07:19AM 45.8590 -78.9870 67° East 528 608 33,000  Level FlightAware
07:21AM 45.9310 -78.7420 67° East 528 608 33,000  Level FlightAware
07:22AM 46.0010 -78.4980 67° East 530 610 33,000  Level FlightAware
07:23AM 46.0540 -78.3050 68° East 537 618 33,000  Level FlightAware
07:24AM 46.1110 -78.1030 68° East 538 619 33,000  Level FlightAware
07:25AM 46.1580 -77.9350 68° East 539 620 33,000  Level FlightAware
07:25AM 46.1940 -77.8050 68° East 539 620 33,000  Level FlightAware
07:26AM 46.2320 -77.6640 69° East 539 620 33,000  Level FlightAware
07:27AM 46.2730 -77.5140 68° East 539 620 33,000  Level FlightAware
07:27AM 46.3130 -77.3700 68° East 539 620 33,000  Level FlightAware
07:28AM 46.3510 -77.2300 68° East 541 623 33,000  Level FlightAware
07:29AM 46.3880 -77.0920 69° East 542 624 33,000  Level FlightAware
07:29AM 46.4230 -76.9620 69° East 541 623 33,000  Level FlightAware
07:30AM 46.4570 -76.8300 69° East 541 623 33,000  Level FlightAware
07:31AM 46.5110 -76.6270 69° East 541 623 33,000  Level FlightAware
07:32AM 46.5510 -76.4770 69° East 542 624 33,000  Level FlightAware
07:32AM 46.5820 -76.3580 69° East 542 624 33,000  Level FlightAware
07:33AM 46.6210 -76.2040 70° East 542 624 33,000  Level FlightAware
07:34AM 46.6550 -76.0730 69° East 542 624 33,000  Level FlightAware
07:34AM 46.6960 -75.9150 69° East 543 625 33,000  Level FlightAware
07:35AM 46.7280 -75.7860 70° East 543 625 33,000  Level FlightAware
07:36AM 46.7690 -75.6240 70° East 543 625 33,000  Level FlightAware
07:37AM 46.8040 -75.4860 70° East 543 625 33,000  Level FlightAware
07:37AM 46.8380 -75.3480 70° East 544 626 33,000  Level FlightAware
07:38AM 46.8710 -75.2180 70° East 544 626 33,000  Level FlightAware
07:39AM 46.9200 -75.0160 70° East 543 625 33,000  Level FlightAware
07:39AM 46.9460 -74.9110 70° East 544 626 33,000  Level FlightAware
07:41AM 46.9970 -74.6960 71° East 544 626 33,000  Level FlightAware
07:42AM 47.0690 -74.4030 70° East 546 628 33,000  Level FlightAware
07:43AM 47.1420 -74.0900 71° East 546 628 33,000  Level FlightAware
07:44AM 47.1750 -73.9510 71° East 546 628 33,000  Level FlightAware
07:45AM 47.2080 -73.8090 71° East 547 629 33,000  Level FlightAware
07:45AM 47.2440 -73.6530 71° East 547 629 33,000  Level FlightAware
07:46AM 47.2840 -73.4800 71° East 550 633 33,000  Level FlightAware
07:47AM 47.3180 -73.3320 71° East 552 635 33,000  Level FlightAware
07:48AM 47.3490 -73.1910 72° East 551 634 33,000  Level FlightAware
07:48AM 47.3820 -73.0460 71° East 552 635 33,000  Level FlightAware
07:49AM 47.4180 -72.8860 72° East 553 636 33,000  Level FlightAware
07:50AM 47.4710 -72.6450 72° East 553 636 33,000  Level FlightAware
07:51AM 47.4940 -72.5410 72° East 553 636 33,000  Level FlightAware
07:52AM 47.5470 -72.2970 72° East 556 640 33,000  Level FlightAware
07:52AM 47.5790 -72.1460 73° East 557 641 33,000  Level FlightAware
07:53AM 47.6220 -71.9430 72° East 558 642 33,000  Level FlightAware
07:54AM 47.6680 -71.7260 72° East 558 642 33,000  Level FlightAware
07:55AM 47.7060 -71.5470 72° East 561 646 33,000  Level FlightAware
07:56AM 47.7520 -71.3250 73° East 562 647 33,000  Level FlightAware
07:57AM 47.7800 -71.1860 73° East 563 648 33,000  Level FlightAware
07:57AM 47.8120 -71.0260 73° East 563 648 33,000  Level FlightAware
07:58AM 47.8450 -70.8650 73° East 565 650 33,000  Level FlightAware
07:59AM 47.8980 -70.6010 73° East 566 651 33,000  Level FlightAware
08:02AM 47.9980 -70.1060 73° East 566 651 33,000  Level FlightAware
08:03AM 48.0410 -69.8770 74° East 559 643 33,000  Level FlightAware
08:04AM 48.0830 -69.6420 75° East 557 641 33,000  Level FlightAware
08:04AM 48.1080 -69.5120 74° East 557 641 33,000  Level FlightAware
08:05AM 48.1300 -69.3980 74° East 557 641 33,000  Level FlightAware
08:06AM 48.1590 -69.2440 74° East 557 641 33,000  Level FlightAware
08:06AM 48.1810 -69.1300 74° East 557 641 33,000  Level FlightAware
08:07AM 48.2090 -68.9850 74° East 557 641 33,000  Level FlightAware
08:08AM 48.2520 -68.7570 74° East 557 641 33,000  Level FlightAware
08:09AM 48.2740 -68.6430 74° East 557 641 33,000  Level FlightAware
08:10AM 48.2960 -68.5290 74° East 557 641 33,000  Level FlightAware
08:10AM 48.3250 -68.3770 74° East 557 641 33,000  Level FlightAware
08:11AM 48.3550 -68.2190 74° East 557 641 33,000  Level FlightAware
08:12AM 48.3770 -68.1020 74° East 557 641 33,000  Level FlightAware
08:13AM 48.4070 -67.9460 74° East 557 641 33,000  Level FlightAware
08:13AM 48.4280 -67.8320 74° East 557 641 33,000  Level FlightAware
08:14AM 48.4667 -67.3167 74° East 560 644 33,000  Level Montreal Center
08:15AM 48.5000 -67.1000 77° East 550 633 33,000  Level Montreal Center
08:15AM 48.5167 -67.0167 73° East 550 633 33,000  Level Gander Center
08:16AM 48.5500 -66.7833 78° East 550 633 33,000  Level Gander Center
08:17AM 48.5833 -66.5667 77° East 550 633 33,000  Level Gander Center
08:18AM 48.6167 -66.3333 78° East 550 633 33,000  Level Gander Center
08:19AM 48.6500 -66.1167 77° East 550 633 33,000  Level Gander Center
08:20AM 48.6833 -65.8833 78° East 560 644 33,000  Level Gander Center
08:21AM 48.7167 -65.6333 78° East 560 644 33,000  Level Gander Center
08:22AM 48.7333 -65.4167 83° East 560 644 33,000  Level Gander Center
08:23AM 48.7833 -65.1833 72° East 560 644 33,000  Level Gander Center
08:24AM 48.8000 -64.9667 83° East 560 644 33,000  Level Gander Center
08:25AM 48.8500 -64.7333 72° East 560 644 33,000  Level Gander Center
08:26AM 48.8667 -64.4833 84° East 550 633 33,000  Level Gander Center
08:27AM 48.9000 -64.2833 76° East 550 633 33,000  Level Gander Center
08:28AM 48.9333 -64.0333 78° East 560 644 33,000  Level Gander Center
08:29AM 48.9500 -63.8000 84° East 550 633 33,000  Level Gander Center
08:30AM 49.0000 -63.5667 72° East 550 633 33,000  Level Gander Center
08:31AM 49.0167 -63.3500 83° East 560 644 33,000  Level Gander Center
08:32AM 49.0500 -63.1000 78° East 560 644 33,000  Level Gander Center
08:33AM 49.0667 -62.8667 84° East 550 633 33,000  Level Gander Center
08:34AM 49.1000 -62.6333 78° East 550 633 33,000  Level Gander Center
08:35AM 49.1333 -62.4000 78° East 550 633 33,000  Level Gander Center
08:36AM 49.1500 -62.1833 83° East 560 644 33,000  Level Gander Center
08:37AM 49.1833 -61.9500 78° East 550 633 33,000  Level Gander Center
08:38AM 49.2000 -61.7167 84° East 560 644 33,000  Level Gander Center
08:39AM 49.2167 -61.4833 84° East 550 633 33,000  Level Gander Center
08:40AM 49.2500 -61.2333 78° East 550 633 33,000  Level Gander Center
08:41AM 49.2667 -61.0000 84° East 550 633 33,000  Level Gander Center
08:42AM 49.3000 -60.7667 78° East 560 644 33,000  Level Gander Center
08:43AM 49.3167 -60.5333 84° East 550 633 33,000  Level Gander Center
08:44AM 49.3333 -60.3000 84° East 560 644 33,000  Level Gander Center
08:50AM 49.4660 -58.9840 84° East 554 638 33,000  Level FlightAware
08:51AM 49.4790 -58.8180 83° East 554 638 33,000  Level FlightAware
08:51AM 49.4950 -58.6600 81° East 552 635 33,000 660 Level FlightAware
08:52AM 49.5140 -58.4680 81° East 557 641 34,000 1,200 Climbing FlightAware
08:53AM 49.5270 -58.3260 82° East 560 644 34,800 720 Climbing FlightAware
08:54AM 49.5430 -58.1610 81° East 566 651 35,000 120 Climbing FlightAware
08:54AM 49.5580 -57.9930 82° East 564 649 35,000  Level FlightAware
08:55AM 49.5750 -57.7980 82° East 567 652 35,000  Level FlightAware
08:56AM 49.5890 -57.6370 82° East 568 654 35,000  Level FlightAware
08:56AM 49.6050 -57.4560 82° East 571 657 35,000  Level FlightAware
08:57AM 49.6190 -57.2930 82° East 578 665 35,000  Level FlightAware
08:58AM 49.6320 -57.1350 83° East 580 667 35,000  Level FlightAware
08:58AM 49.6440 -56.9860 83° East 582 670 35,000  Level FlightAware
08:59AM 49.6580 -56.8210 82° East 584 672 35,000  Level FlightAware
09:01AM 49.7040 -56.2230 83° East 585 673 35,000  Level FlightAware
09:02AM 49.7170 -56.0580 83° East 583 671 35,000  Level FlightAware
09:03AM 49.7300 -55.8750 84° East 585 673 35,000  Level FlightAware
09:03AM 49.7330 -55.8290 84° East 587 676 35,000  Level FlightAware
09:05AM 49.7630 -55.3930 84° East 586 674 35,000  Level FlightAware
09:05AM 49.7750 -55.2260 84° East 585 673 35,000  Level FlightAware
09:07AM 49.7930 -54.9390 84° East 577 664 35,000  Level FlightAware
09:07AM 49.8050 -54.7540 84° East 574 661 35,000  Level FlightAware
09:08AM 49.8150 -54.5900 85° East 572 658 35,000  Level FlightAware
09:09AM 49.8260 -54.4070 85° East 571 657 35,000  Level FlightAware
09:09AM 49.8350 -54.2450 85° East 572 658 35,000  Level FlightAware
09:10AM 49.8440 -54.0810 85° East 574 661 35,000  Level FlightAware
09:11AM 49.8560 -53.8600 85° East 580 667 35,000  Level FlightAware
09:12AM 49.8680 -53.6340 85° East 584 672 35,000  Level FlightAware
09:13AM 49.8770 -53.4640 85° East 584 672 35,000  Level FlightAware
09:13AM 49.8850 -53.3130 85° East 585 673 35,000  Level FlightAware
09:14AM 49.8970 -53.0510 86° East 585 673 35,000  Level FlightAware
09:15AM 49.9040 -52.9050 86° East 585 673 35,000  Level FlightAware
09:16AM 49.9120 -52.7340 86° East 584 672 35,000  Level FlightAware
09:16AM 49.9200 -52.5500 86° East 583 671 35,000  Level FlightAware
09:17AM 49.9260 -52.3990 86° East 583 671 35,000  Level FlightAware
09:18AM 49.9330 -52.2320 86° East 583 671 35,000  Level FlightAware
09:18AM 49.9400 -52.0460 87° East 582 670 35,000  Level FlightAware
09:19AM 49.9460 -51.9140 86° East 582 670 35,000  Level FlightAware
09:20AM 49.9550 -51.6620 87° East 580 667 35,000  Level FlightAware
09:21AM 49.9610 -51.4680 87° East 579 666 35,000  Level FlightAware
09:22AM 49.9680 -51.2370 87° East 580 667 35,000  Level FlightAware
09:22AM 49.9710 -51.1490 87° East 580 667 35,000  Level FlightAware
09:23AM 49.9770 -50.9750 87° East 580 667 35,000  Level FlightAware
09:23AM 49.9810 -50.8480 87° East 580 667 35,000  Level FlightAware
09:24AM 49.9870 -50.6780 87° East 580 667 35,000  Level FlightAware
09:25AM 49.9910 -50.5500 87° East 580 667 35,000  Level FlightAware
09:26AM 49.9970 -50.3800 87° East 580 667 35,000  Level FlightAware
09:26AM 50.0010 -50.2520 87° East 580 667 35,000  Level FlightAware
09:27AM 50.0070 -50.0820 87° East 580 667 35,000  Level FlightAware
09:28AM 50.0130 -49.9120 87° East 580 667 35,000  Level FlightAware
09:28AM 50.0170 -49.7810 87° East 580 667 35,000  Level FlightAware
09:29AM 50.0230 -49.6070 87° East 580 667 35,000  Level FlightAware
09:30AM 50.0270 -49.4800 87° East 580 667 35,000  Level FlightAware
09:31AM 50.0330 -49.3060 87° East 580 667 35,000  Level FlightAware
09:31AM 50.0167 -48.7500 87° East 580 667 35,000  Level Gander Center
09:32AM 50.0333 -48.5167 84° East 570 656 35,000  Level Gander Center
09:33AM 50.0333 -48.2500 90° East 580 667 35,000  Level Gander Center
09:34AM 50.0500 -48.0000 84° East 580 667 35,000 -60 Level Gander Center
09:36AM 50.0570 -47.7419 87° East  Level FlightAware Approximate
09:43AM 50.0866 -46.2136 88° East  Level FlightAware Approximate
09:44AM 50.0891 -45.9951 89° East  Level FlightAware Approximate
09:45AM 50.0913 -45.7766 89° East  Level FlightAware Approximate
09:46AM 50.0931 -45.5581 89° East  Level FlightAware Approximate
09:47AM 50.0945 -45.3396 89° East  Level FlightAware Approximate
09:48AM 50.0954 -45.1211 90° East  Level FlightAware Approximate
09:49AM 50.0960 -44.9026 90° East  Level FlightAware Approximate
09:50AM 50.0961 -44.6841 90° East  Level FlightAware Approximate
09:51AM 50.0958 -44.4655 90° East  Level FlightAware Approximate
09:52AM 50.0951 -44.2470 90° East  Level FlightAware Approximate
09:53AM 50.0940 -44.0285 90° East  Level FlightAware Approximate
09:54AM 50.0925 -43.8100 91° East  Level FlightAware Approximate
09:55AM 50.0905 -43.5915 91° East  Level FlightAware Approximate
09:56AM 50.0882 -43.3730 91° East  Level FlightAware Approximate
09:57AM 50.0855 -43.1545 91° East  Level FlightAware Approximate
09:58AM 50.0823 -42.9361 91° East  Level FlightAware Approximate
09:59AM 50.0788 -42.7177 91° East  Level FlightAware Approximate
10:00AM 50.0748 -42.4994 92° East  Level FlightAware Approximate
10:01AM 50.0704 -42.2811 92° East  Level FlightAware Approximate
10:02AM 50.0656 -42.0628 92° East  Level FlightAware Approximate
10:03AM 50.0604 -41.8446 92° East  Level FlightAware Approximate
10:04AM 50.0548 -41.6264 92° East  Level FlightAware Approximate
10:05AM 50.0488 -41.4082 92° East  Level FlightAware Approximate
10:06AM 50.0423 -41.1902 93° East  Level FlightAware Approximate
10:07AM 50.0355 -40.9722 93° East  Level FlightAware Approximate
10:08AM 50.0283 -40.7542 93° East  Level FlightAware Approximate
10:09AM 50.0206 -40.5363 93° East  Level FlightAware Approximate
10:10AM 50.0125 -40.3185 93° East  Level FlightAware Approximate
10:11AM 50.0041 -40.1008 93° East  Level FlightAware Approximate
10:12AM 50.0166 -39.8858 77° East  Level FlightAware Approximate
10:13AM 50.0472 -39.6728 77° East  Level FlightAware Approximate
10:14AM 50.0774 -39.4596 77° East  Level FlightAware Approximate
10:15AM 50.1072 -39.2460 78° East  Level FlightAware Approximate
10:16AM 50.1366 -39.0323 78° East  Level FlightAware Approximate
10:17AM 50.1656 -38.8182 78° East  Level FlightAware Approximate
10:18AM 50.1943 -38.6039 78° East  Level FlightAware Approximate
10:19AM 50.2225 -38.3894 78° East  Level FlightAware Approximate
10:20AM 50.2503 -38.1745 78° East  Level FlightAware Approximate
10:21AM 50.2778 -37.9595 79° East  Level FlightAware Approximate
10:22AM 50.3048 -37.7442 79° East  Level FlightAware Approximate
10:23AM 50.3315 -37.5286 79° East  Level FlightAware Approximate
10:24AM 50.3577 -37.3129 79° East  Level FlightAware Approximate
10:25AM 50.3836 -37.0968 79° East  Level FlightAware Approximate
10:26AM 50.4090 -36.8806 79° East  Level FlightAware Approximate
10:27AM 50.4341 -36.6641 80° East  Level FlightAware Approximate
10:28AM 50.4587 -36.4474 80° East  Level FlightAware Approximate
10:29AM 50.4830 -36.2304 80° East  Level FlightAware Approximate
10:30AM 50.5068 -36.0133 80° East  Level FlightAware Approximate
10:31AM 50.5303 -35.7959 80° East  Level FlightAware Approximate
10:32AM 50.5533 -35.5783 80° East  Level FlightAware Approximate
10:33AM 50.5759 -35.3605 81° East  Level FlightAware Approximate
10:34AM 50.5981 -35.1425 81° East  Level FlightAware Approximate
10:35AM 50.6200 -34.9243 81° East  Level FlightAware Approximate
10:36AM 50.6414 -34.7058 81° East  Level FlightAware Approximate
10:37AM 50.6624 -34.4872 81° East  Level FlightAware Approximate
10:38AM 50.6830 -34.2684 81° East  Level FlightAware Approximate
10:39AM 50.7031 -34.0494 82° East  Level FlightAware Approximate
10:40AM 50.7229 -33.8302 82° East  Level FlightAware Approximate
10:41AM 50.7423 -33.6109 82° East  Level FlightAware Approximate
10:42AM 50.7612 -33.3913 82° East  Level FlightAware Approximate
10:43AM 50.7797 -33.1716 82° East  Level FlightAware Approximate
10:44AM 50.7979 -32.9517 82° East  Level FlightAware Approximate
10:45AM 50.8156 -32.7317 83° East  Level FlightAware Approximate
10:46AM 50.8329 -32.5114 83° East  Level FlightAware Approximate
10:47AM 50.8497 -32.2910 83° East  Level FlightAware Approximate
10:48AM 50.8662 -32.0705 83° East  Level FlightAware Approximate
10:49AM 50.8823 -31.8498 83° East  Level FlightAware Approximate
10:50AM 50.8979 -31.6289 84° East  Level FlightAware Approximate
10:51AM 50.9131 -31.4079 84° East  Level FlightAware Approximate
10:52AM 50.9279 -31.1868 84° East  Level FlightAware Approximate
10:53AM 50.9423 -30.9655 84° East  Level FlightAware Approximate
10:54AM 50.9562 -30.7441 84° East  Level FlightAware Approximate
10:55AM 50.9698 -30.5226 84° East  Level FlightAware Approximate
10:56AM 50.9829 -30.3009 85° East  Level FlightAware Approximate
10:57AM 50.9956 -30.0791 85° East  Level FlightAware Approximate
10:58AM 51.0060 -29.8569 86° East  Level FlightAware Approximate
10:59AM 51.0151 -29.6346 86° East  Level FlightAware Approximate
11:00AM 51.0237 -29.4121 86° East  Level FlightAware Approximate
11:01AM 51.0318 -29.1896 87° East  Level FlightAware Approximate
11:02AM 51.0396 -28.9670 87° East  Level FlightAware Approximate
11:03AM 51.0470 -28.7444 87° East  Level FlightAware Approximate
11:04AM 51.0539 -28.5216 87° East  Level FlightAware Approximate
11:05AM 51.0603 -28.2988 87° East  Level FlightAware Approximate
11:06AM 51.0664 -28.0760 87° East  Level FlightAware Approximate
11:07AM 51.0721 -27.8531 88° East  Level FlightAware Approximate
11:08AM 51.0773 -27.6301 88° East  Level FlightAware Approximate
11:09AM 51.0821 -27.4071 88° East  Level FlightAware Approximate
11:10AM 51.0864 -27.1840 88° East  Level FlightAware Approximate
11:11AM 51.0904 -26.9609 88° East  Level FlightAware Approximate
11:12AM 51.0939 -26.7378 88° East  Level FlightAware Approximate
11:13AM 51.0970 -26.5146 89° East  Level FlightAware Approximate
11:14AM 51.0997 -26.2914 89° East  Level FlightAware Approximate
11:15AM 51.1019 -26.0682 89° East  Level FlightAware Approximate
11:16AM 51.1037 -25.8449 89° East  Level FlightAware Approximate
11:17AM 51.1051 -25.6217 89° East  Level FlightAware Approximate
11:18AM 51.1061 -25.3984 90° East  Level FlightAware Approximate
11:19AM 51.1067 -25.1751 90° East  Level FlightAware Approximate
11:20AM 51.1068 -24.9519 90° East  Level FlightAware Approximate
11:21AM 51.1065 -24.7286 90° East  Level FlightAware Approximate
11:22AM 51.1058 -24.5053 90° East  Level FlightAware Approximate
11:23AM 51.1046 -24.2821 90° East  Level FlightAware Approximate
11:24AM 51.1030 -24.0588 91° East  Level FlightAware Approximate
11:25AM 51.1010 -23.8356 91° East  Level FlightAware Approximate
11:26AM 51.0986 -23.6124 91° East  Level FlightAware Approximate
11:27AM 51.0957 -23.3892 91° East  Level FlightAware Approximate
11:28AM 51.0924 -23.1660 91° East  Level FlightAware Approximate
11:29AM 51.0887 -22.9429 91° East  Level FlightAware Approximate
11:30AM 51.0846 -22.7198 92° East  Level FlightAware Approximate
11:31AM 51.0801 -22.4968 92° East  Level FlightAware Approximate
11:32AM 51.0751 -22.2738 92° East  Level FlightAware Approximate
11:33AM 51.0697 -22.0508 92° East  Level FlightAware Approximate
11:34AM 51.0639 -21.8280 92° East  Level FlightAware Approximate
11:35AM 51.0576 -21.6051 92° East  Level FlightAware Approximate
11:36AM 51.0509 -21.3824 93° East  Level FlightAware Approximate
11:37AM 51.0438 -21.1597 93° East  Level FlightAware Approximate
11:38AM 51.0363 -20.9370 93° East  Level FlightAware Approximate
11:39AM 51.0284 -20.7145 93° East  Level FlightAware Approximate
11:40AM 51.0200 -20.4920 93° East  Level FlightAware Approximate
11:41AM 51.0112 -20.2696 94° East  Level FlightAware Approximate
11:42AM 51.0020 -20.0473 94° East  Level FlightAware Approximate
11:43AM 51.0170 -19.8267 81° East  Level FlightAware Approximate
11:44AM 51.0382 -19.6064 81° East  Level FlightAware Approximate
11:45AM 51.0590 -19.3858 81° East  Level FlightAware Approximate
11:46AM 51.0793 -19.1651 82° East  Level FlightAware Approximate
11:47AM 51.0993 -18.9442 82° East  Level FlightAware Approximate
11:48AM 51.1188 -18.7231 82° East  Level FlightAware Approximate
11:49AM 51.1380 -18.5018 82° East  Level FlightAware Approximate
11:50AM 51.1567 -18.2803 82° East  Level FlightAware Approximate
11:51AM 51.1749 -18.0587 82° East  Level FlightAware Approximate
11:52AM 51.1928 -17.8368 83° East  Level FlightAware Approximate
11:53AM 51.2103 -17.6148 83° East  Level FlightAware Approximate
11:54AM 51.2273 -17.3927 83° East  Level FlightAware Approximate
11:55AM 51.2439 -17.1703 83° East  Level FlightAware Approximate
11:56AM 51.2601 -16.9479 83° East  Level FlightAware Approximate
11:57AM 51.2758 -16.7252 83° East  Level FlightAware Approximate
11:58AM 51.2912 -16.5024 84° East  Level FlightAware Approximate
11:59AM 51.3061 -16.2795 84° East  Level FlightAware Approximate
12:00PM 51.3206 -16.0564 84° East  Level FlightAware Approximate
12:01PM 51.3346 -15.8332 84° East  Level FlightAware Approximate
12:02PM 51.3483 -15.6098 84° East  Level FlightAware Approximate
12:03PM 51.3615 -15.3864 85° East  Level FlightAware Approximate
12:04PM 51.3743 -15.1628 85° East  Level FlightAware Approximate
12:05PM 51.3873 -14.9391 84° East  Level FlightAware Approximate
12:06PM 51.4016 -14.7156 84° East  Level FlightAware Approximate
12:07PM 51.4155 -14.4920 84° East  Level FlightAware Approximate
12:08PM 51.4290 -14.2682 84° East  Level FlightAware Approximate
12:09PM 51.4421 -14.0443 85° East  Level FlightAware Approximate
12:10PM 51.4547 -13.8203 85° East  Level FlightAware Approximate
12:11PM 51.4669 -13.5961 86° East  Level FlightAware Approximate
12:12PM 51.4771 -13.3717 86° East  Level FlightAware Approximate
12:13PM 51.4870 -13.1471 86° East  Level FlightAware Approximate
12:14PM 51.4965 -12.9225 86° East  Level FlightAware Approximate
12:15PM 51.5055 -12.6977 86° East  Level FlightAware Approximate
12:16PM 51.5141 -12.4729 86° East  Level FlightAware Approximate
12:17PM 51.5222 -12.2480 87° East  Level FlightAware Approximate
12:18PM 51.5299 -12.0230 87° East  Level FlightAware Approximate
12:19PM 51.5372 -11.7979 87° East  Level FlightAware Approximate
12:20PM 51.5441 -11.5728 87° East  Level FlightAware Approximate
12:21PM 51.5505 -11.3476 88° East  Level FlightAware Approximate
12:22PM 51.5562 -11.1223 88° East  Level FlightAware Approximate
12:23PM 51.5615 -10.8970 88° East  Level FlightAware Approximate
12:24PM 51.5663 -10.6716 88° East  Level FlightAware Approximate
12:25PM 51.5707 -10.4462 88° East  Level FlightAware Approximate
12:26PM 51.5747 -10.2207 88° East  Level FlightAware Approximate
12:27PM 51.5782 -9.9952 88° East  Level FlightAware Approximate
12:28PM 51.5813 -9.7697 89° East  Level FlightAware Approximate
12:29PM 51.5840 -9.5441 89° East  Level FlightAware Approximate
12:30PM 51.5863 -9.3185 89° East  Level FlightAware Approximate
12:30PM 50.7680 -10.1170 89° East 441 507 31,000  Level FlightAware
12:31PM 51.5881 -9.0929 89° East  Level FlightAware Approximate
12:31PM 50.7860 -9.9840 78° East 443 510 31,000  Level FlightAware
12:32PM 50.8000 -9.8740 79° East 441 507 31,000  Level FlightAware
12:33PM 50.8170 -9.7030 81° East 438 504 31,000  Level FlightAware
12:34PM 50.8270 -9.5340 85° East 436 502 31,000  Level FlightAware
12:34PM 50.8310 -9.4320 86° East 435 501 31,000  Level FlightAware
12:35PM 50.8390 -9.2670 86° East 436 502 31,000  Level FlightAware
12:36PM 50.8450 -9.1400 86° East 436 502 31,000  Level FlightAware
12:36PM 50.8500 -9.0230 86° East 436 502 31,000  Level FlightAware
12:37PM 50.8560 -8.8850 86° East 436 502 31,000  Level FlightAware
12:37PM 50.8560 -8.8772 86° East 468 539 31,000  Level FlightAware UK
12:37PM 50.8603 -8.7820 86° East 466 536 31,000  Level FlightAware UK
12:38PM 50.8620 -8.7510 86° East 436 502 31,000  Level FlightAware
12:38PM 50.8680 -8.6270 86° East 436 502 31,000  Level FlightAware
12:39PM 50.8731 -8.4960 86° East 468 539 31,000  Level FlightAware UK
12:39PM 50.8740 -8.4740 86° East 438 504 31,000  Level FlightAware
12:40PM 50.8806 -8.3046 86° East 468 539 31,000  Level FlightAware UK
12:40PM 50.8810 -8.3140 86° East 438 504 31,000  Level FlightAware
12:40PM 50.8844 -8.2088 86° East 466 536 31,000  Level FlightAware UK
12:41PM 50.8860 -8.1880 86° East 438 504 31,000  Level FlightAware
12:41PM 50.8920 -8.0390 86° East 439 505 31,000  Level FlightAware
12:42PM 50.8959 -7.9199 86° East 470 541 31,000  Level FlightAware UK
12:42PM 50.8970 -7.9120 86° East 439 505 31,000  Level FlightAware
12:43PM 50.9010 -7.7770 87° East 439 505 31,000  Level FlightAware
12:43PM 50.9060 -7.6430 87° East 439 505 31,000  Level FlightAware
12:43PM 50.9058 -7.6310 87° East 470 541 31,000  Level FlightAware UK
12:44PM 50.9091 -7.5348 87° East 468 539 31,000  Level FlightAware UK
12:44PM 50.9110 -7.4990 87° East 439 505 31,000  Level FlightAware
12:45PM 50.9140 -7.3900 87° East 438 504 31,000  Level FlightAware
12:45PM 50.9190 -7.2500 87° East 437 503 31,000  Level FlightAware
12:46PM 50.9218 -7.1511 87° East 470 541 31,000  Level FlightAware UK
12:46PM 50.9230 -7.1220 87° East 437 503 31,000  Level FlightAware
12:47PM 50.9270 -6.9960 87° East 436 502 31,000  Level FlightAware
12:47PM 50.9305 -6.8637 87° East 470 541 31,000  Level FlightAware UK
12:48PM 50.9310 -6.8520 87° East 436 502 31,000  Level FlightAware
12:48PM 50.9340 -6.7210 88° East 435 501 31,000  Level FlightAware
12:49PM 50.9380 -6.5930 87° East 435 501 31,000  Level FlightAware
12:49PM 50.9404 -6.4820 87° East 470 541 31,000  Level FlightAware UK
12:50PM 50.9410 -6.4480 87° East 434 499 31,000  Level FlightAware
12:50PM 50.9440 -6.3260 88° East 434 499 31,000  Level FlightAware
12:51PM 50.9480 -6.1800 87° East 434 499 31,000  Level FlightAware
12:52PM 50.9499 -6.0635 87° East 468 539 31,000  Level FlightAware UK
12:52PM 50.9500 -6.0600 87° East 434 499 31,000  Level FlightAware
12:52PM 50.9530 -5.9190 88° East 434 499 31,000  Level FlightAware
12:53PM 50.9550 -5.7880 88° East 433 498 31,000  Level FlightAware
12:53PM 50.9561 -5.7773 88° East 470 541 31,000  Level FlightAware UK
12:54PM 50.9579 -5.6824 88° East 468 539 31,000  Level FlightAware UK
12:54PM 50.9580 -5.6600 88° East 433 498 31,000  Level FlightAware
12:55PM 50.9600 -5.5150 89° East 433 498 31,000  Level FlightAware
12:55PM 50.9624 -5.3978 89° East 468 539 31,000  Level FlightAware UK
12:55PM 50.9620 -5.3900 89° East 434 499 31,000  Level FlightAware
12:56PM 50.9640 -5.2530 89° East 434 499 31,000  Level FlightAware
12:57PM 50.9660 -5.1170 89° East 434 499 31,000  Level FlightAware
12:57PM 50.9680 -5.0020 88° East 434 499 31,000  Level FlightAware
12:58PM 50.9692 -4.8840 88° East 470 541 31,000  Level FlightAware UK
12:58PM 50.9690 -4.8560 88° East 434 499 31,000  Level FlightAware
12:59PM 50.9710 -4.7160 89° East 434 499 31,000  Level FlightAware
12:59PM 50.9720 -4.5890 89° East 434 499 31,000  Level FlightAware
01:00PM 50.9730 -4.4480 89° East 433 498 31,000  Level FlightAware
01:01PM 50.9741 -4.3503 89° East 468 539 31,000  Level FlightAware UK
01:01PM 50.9740 -4.3330 89° East 434 499 31,000  Level FlightAware
01:01PM 50.9750 -4.2120 89° East 434 499 31,000  Level FlightAware
01:02PM 50.9750 -4.0740 90° East 434 499 31,000  Level FlightAware
01:03PM 50.9762 -3.9498 90° East 466 536 31,000  Level FlightAware UK
01:03PM 50.9760 -3.9460 90° East 434 499 31,000  Level FlightAware
01:03PM 50.9760 -3.8150 90° East 435 501 31,000  Level FlightAware
01:04PM 50.9768 -3.6826 90° East 468 539 31,000  Level FlightAware UK
01:04PM 50.9760 -3.6810 90° East 436 502 31,000  Level FlightAware
01:05PM 50.9768 -3.5679 90° East 466 536 31,000  Level FlightAware UK
01:05PM 50.9760 -3.5810 90° East 436 502 31,000  Level FlightAware
01:05PM 50.9765 -3.4813 90° East 436 502 31,000  Level FlightAware ADS-B
01:06PM 50.9763 -3.3825 90° East 435 501 31,000  Level FlightAware ADS-B
01:06PM 50.9761 -3.2754 90° East 436 502 31,000  Level FlightAware ADS-B
01:07PM 50.9757 -3.1596 90° East 435 501 31,000  Level FlightAware ADS-B
01:08PM 50.9756 -3.0314 90° East 466 536 31,000  Level FlightAware UK
01:08PM 50.9770 -3.0088 90° East 435 501 31,000  Level FlightAware ADS-B
01:08PM 50.9831 -2.9129 84° East 433 498 31,000  Level FlightAware ADS-B
01:09PM 50.9889 -2.8161 85° East 432 497 31,000  Level FlightAware ADS-B
01:09PM 50.9943 -2.7115 85° East 432 497 31,000  Level FlightAware ADS-B
01:10PM 50.9988 -2.6130 86° East 433 498 31,000  Level FlightAware ADS-B
01:10PM 51.0032 -2.5144 86° East 434 499 31,000  Level FlightAware ADS-B
01:11PM 51.0074 -2.4174 86° East 435 501 31,000  Level FlightAware ADS-B
01:11PM 51.0116 -2.3201 86° East 436 502 31,000  Level FlightAware ADS-B
01:12PM 51.0158 -2.2220 86° East 437 503 31,000  Level FlightAware ADS-B
01:12PM 51.0204 -2.1152 86° East 434 499 31,000  Level FlightAware ADS-B
01:13PM 51.0250 -2.0078 86° East 432 497 31,000  Level FlightAware ADS-B
01:14PM 51.0292 -1.9044 86° East 432 497 31,000  Level FlightAware ADS-B
01:14PM 51.0331 -1.8084 86° East 432 497 31,000  Level FlightAware ADS-B
01:15PM 51.0369 -1.7113 86° East 432 497 31,000  Level FlightAware ADS-B
01:15PM 51.0407 -1.6158 86° East 433 498 31,000  Level FlightAware ADS-B
01:16PM 51.0444 -1.5187 86° East 435 501 31,000  Level FlightAware ADS-B
01:16PM 51.0479 -1.4219 87° East 436 502 31,000  Level FlightAware ADS-B
01:17PM 51.0520 -1.3247 86° East 433 498 31,000  Level FlightAware ADS-B
01:17PM 51.0576 -1.2294 85° East 432 497 31,000  Level FlightAware ADS-B
01:18PM 51.0642 -1.1337 84° East 432 497 31,000  Level FlightAware ADS-B
01:18PM 51.0712 -1.0381 83° East 432 497 31,000  Level FlightAware ADS-B
01:19PM 51.0782 -0.9432 83° East 432 497 31,000 -240 Level FlightAware ADS-B
01:19PM 51.0849 -0.8492 83° East 431 496 30,800 -1,320 Descending FlightAware ADS-B
01:20PM 51.0916 -0.7534 84° East 429 494 29,700 -2,520 Descending FlightAware ADS-B
01:20PM 51.0980 -0.6596 84° East 429 494 28,300 -2,460 Descending FlightAware ADS-B
01:21PM 51.1043 -0.5645 84° East 428 493 27,200 -1,320 Descending FlightAware ADS-B
01:21PM 51.1106 -0.4693 84° East 430 495 27,000 -240 Descending FlightAware ADS-B
01:22PM 51.1172 -0.3674 84° East 426 490 27,000  Level FlightAware ADS-B
01:22PM 51.1233 -0.2731 84° East 423 487 27,000  Level FlightAware ADS-B
01:23PM 51.1292 -0.1799 84° East 422 486 27,000  Level FlightAware ADS-B
01:23PM 51.1351 -0.0874 84° East 422 486 27,000  Level FlightAware ADS-B
01:24PM 51.1408 -0.0043 84° East 422 486 27,000  Level FlightAware ADS-B
01:24PM 51.1462 0.0389 79° East 423 487 27,000  Level FlightAware ADS-B
01:24PM 51.1613 0.1390 76° East 423 487 27,000  Level FlightAware ADS-B
01:25PM 51.1756 0.2332 76° East 423 487 27,000  Level FlightAware ADS-B
01:25PM 51.1890 0.3251 77° East 423 487 27,000  Level FlightAware ADS-B
01:26PM 51.2025 0.4164 77° East 423 487 27,000  Level FlightAware ADS-B
01:26PM 51.2133 0.4910 77° East 423 487 27,000  Level FlightAware ADS-B
01:27PM 51.2171 0.5286 81° East 424 488 27,000  Level FlightAware ADS-B
01:27PM 51.2177 0.5429 86° East 425 489 27,000  Level FlightAware ADS-B
01:27PM 51.2176 0.5648 90° East 425 489 27,000  Level FlightAware ADS-B
01:27PM 51.2141 0.6171 96° East 427 491 27,000  Level FlightAware ADS-B
01:27PM 51.2129 0.6477 94° East 425 489 27,000 -420 Level FlightAware ADS-B
01:27PM 51.2131 0.6653 89° East 423 487 26,900 -840 Descending FlightAware ADS-B
01:27PM 51.2149 0.6942 84° East 419 482 26,800 -1,440 Descending FlightAware ADS-B
01:28PM 51.2237 0.7926 82° East 403 464 25,900 -1,860 Descending FlightAware ADS-B
01:28PM 51.2319 0.8820 82° East 402 463 24,900 -1,620 Descending FlightAware ADS-B
01:29PM 51.2399 0.9709 82° East 400 460 24,300 -1,140 Descending FlightAware ADS-B
01:29PM 51.2470 1.0526 82° East 396 456 23,800 -1,140 Descending FlightAware ADS-B
01:30PM 51.2550 1.1447 82° East 394 453 23,200 -780 Descending FlightAware ADS-B
01:31PM 51.2627 1.2338 82° East 392 451 23,000 -180 Descending FlightAware ADS-B
01:31PM 51.2719 1.3395 82° East 389 448 23,000  Level FlightAware ADS-B
01:31PM 51.2742 1.3748 84° East 389 448 23,000 -360 Level FlightAware ADS-B
01:31PM 51.2744 1.3915 89° East 390 449 22,900 -1,020 Descending FlightAware ADS-B
01:32PM 51.2696 1.5530 93° East 391 450 22,000 -960 Descending FlightAware ADS-B
01:33PM 51.2560 1.6470 103° East 386 444 21,500 -960 Descending FlightAware
01:34PM 51.2400 1.7540 103° East 378 435 20,800 -1,020 Descending FlightAware
01:34PM 51.2250 1.8560 103° East 378 435 20,200 -660 Descending FlightAware
01:35PM 51.2100 1.9610 103° East 376 433 20,000 -180 Descending FlightAware
01:36PM 51.1940 2.0620 104° East 372 428 20,000  Level FlightAware
01:36PM 51.1720 2.1930 105° East 372 428 20,000  Level FlightAware
01:37PM 51.1550 2.2920 105° East 381 438 20,000  Level FlightAware
01:38PM 51.1369 2.4031 105° East 390 449 20,000  Level FlightAware UK
01:38PM 51.1370 2.4020 105° East 372 428 20,000  Level FlightAware
01:38PM 51.1213 2.4986 105° East 388 447 20,000  Level FlightAware UK
01:38PM 51.1190 2.5080 105° East 370 426 20,000  Level FlightAware
01:39PM 51.1040 2.6010 104° East 371 427 20,000  Level FlightAware
01:40PM 51.0870 2.7190 103° East 371 427 20,000  Level FlightAware
01:40PM 51.0755 2.8170 103° East 390 449 20,000  Level FlightAware UK
01:40PM 51.0740 2.8260 103° East 371 427 20,000 -1,080 Level FlightAware
01:41PM 51.0620 2.9310 100° East 350 403 19,200 -1,440 Descending FlightAware
01:42PM 51.0500 3.0290 100° East 340 391 18,100 -1,920 Descending FlightAware
01:42PM 51.0483 3.0454 100° East 354 407 17,800 -2,100 Descending FlightAware UK
01:42PM 51.0374 3.1337 100° East 350 403 16,700 -1,800 Descending FlightAware UK
01:42PM 51.0360 3.1400 100° East 337 388 16,600 -1,680 Descending FlightAware
01:43PM 51.0230 3.2480 101° East 329 379 15,300 -1,320 Descending FlightAware
01:44PM 51.0109 3.3496 101° East 344 396 14,800 -600 Descending FlightAware UK
01:44PM 51.0120 3.3430 101° East 333 383 14,900 -1,620 Climbing FlightAware
01:44PM 51.0019 3.4210 101° East 334 384 14,000 -1,680 Descending FlightAware UK
01:44PM 51.0000 3.4380 101° East 325 374 13,800 -1,440 Descending FlightAware
01:45PM 50.9880 3.5300 102° East 316 364 12,800 -1,560 Descending FlightAware
01:46PM 50.9750 3.6310 102° East 309 356 11,600 -1,560 Descending FlightAware
01:47PM 50.9643 3.7193 102° East 314 361 10,700 -1,140 Descending FlightAware UK
01:47PM 50.9600 3.7480 102° East 289 333 10,600 -1,080 Descending FlightAware
01:48PM 50.9470 3.8410 102° East 279 321 9,600 -1,260 Descending FlightAware
01:48PM 50.9400 3.8930 102° East 280 322 9,000 -1,380 Descending FlightAware
01:48PM 50.9350 3.9360 100° East 278 320 8,500 -1,500 Descending FlightAware
01:49PM 50.9300 3.9690 104° East 275 316 8,200 -780 Descending FlightAware
01:49PM 50.9240 4.0110 103° East 277 319 8,000 -300 Descending FlightAware
01:49PM 50.9120 4.0430 121° Southeast 284 327 8,000  Level FlightAware
01:50PM 50.8980 4.0560 150° Southeast 288 331 8,000 -420 Level FlightAware
01:50PM 50.8550 4.0570 179° South 293 337 7,700 -900 Descending FlightAware
01:51PM 50.8160 4.0570 180° South 290 334 7,100 -1,320 Descending FlightAware
01:51PM 50.7810 4.0570 180° South 278 320 6,500 -1,380 Descending FlightAware
01:51PM 50.7480 4.0570 180° South 278 320 6,000 -840 Descending FlightAware
01:52PM 50.7180 4.0560 181° South 273 314 5,800 -1,020 Descending FlightAware
01:52PM 50.6780 4.0600 176° South 260 299 5,100 -840 Descending FlightAware
01:53PM 50.6540 4.0970 136° Southeast 257 296 5,000 -300 Descending FlightAware
01:53PM 50.6510 4.1170 103° East 245 282 4,900 -1,080 Descending FlightAware
01:53PM 50.6450 4.1700 103° East 239 275 4,300 -1,320 Descending FlightAware
01:54PM 50.6451 4.1809 103° East 1 1 4,200 -840 Descending FlightAware UK
01:54PM 50.6400 4.2160 100° East 227 261 3,900 -960 Descending FlightAware
01:54PM 50.6500 4.2570 69° East 218 251 3,400 -1,200 Descending FlightAware
01:55PM 50.6650 4.2950 58° Northeast 214 246 2,800 -600 Descending FlightAware
01:55PM 50.6790 4.3310 58° Northeast 186 214 2,800  Level FlightAware
01:56PM 50.6900 4.3610 60° Northeast 176 203 2,800  Level FlightAware
01:56PM 50.7030 4.3940 58° Northeast 175 201 2,800  Level FlightAware
01:57PM 50.7090 4.4100 59° Northeast 174 200 2,800 -180 Level FlightAware
01:57PM 50.7260 4.4250 29° Northeast 167 192 2,700 -180 Descending FlightAware
01:57PM 50.7360 4.4300 18° North 168 193 2,700 -300 Level FlightAware
01:58PM 50.7550 4.4380 15° North 165 190 2,500 -660 Descending FlightAware
01:58PM 50.7760 4.4460 14° North 155 178 2,100 -780 Descending FlightAware
01:59PM 50.7950 4.4540 15° North 151 174 1,800 -780 Descending FlightAware
01:59PM 50.8120 4.4610 15° North 141 162 1,400 -780 Descending FlightAware
01:59PM 50.8280 4.4680 15° North 134 154 1,100 -720 Descending FlightAware
02:00PM 50.8450 4.4740 13° North 137 158 800 -600 Descending FlightAware
02:00PM 50.8530 4.4780 18° North 135 155 700 -600 Descending FlightAware
02:01PM 50.8660 4.4830 14° North 139 160 400 -720 Descending FlightAware
02:01PM 50.8830 4.4900 15° North 136 157 100 -840 Descending FlightAware
02:01PM 50.8950 4.4950 15° North 115 132 -300 Descending FlightAware
02:02PM 50.9080 4.5000 14° North 67 77  Level FlightAware
02:02PM 50.9080 4.4990 270° West 10 12  Level FlightAware
02:03PM 50.9090 4.4990 360° North 8 9  Level FlightAware
02:03PM 50.9090 4.4980 270° West 10 12  Level FlightAware
02:03PM 50.9090 4.4970 270° West 12 14  Level FlightAware
02:04PM 50.9080 4.4940 242° Southwest 17 20  Level FlightAware
02:04PM 50.9070 4.4890 252° West 24 28  Level FlightAware
02:05PM 50.9060 4.4850 248° West 22 25  Level FlightAware
02:05PM 50.9040 4.4780 246° West 28 32  Level FlightAware
02:06PM 50.9010 4.4710 236° Southwest 26 30  Level FlightAware
02:08PM 50.8980 4.4570 251° West 5 6  Level FlightAware
02:10PM 50.8990 4.4570 360° North 11 13  Level FlightAware
02:12PM 50.9020 4.4580 12° North 7 8  Level FlightAware
02:12PM 50.9030 4.4580 360° North 2 2  Level FlightAware
02:15PM 50.9000 4.4833 90° East  Level FlightAware Approximate